createdAt,value
2022-08-29T00:01:13.787Z,1.40
2022-08-29T00:03:42.123Z,2.10
2022-08-29T00:06:11.991Z,1.80
2022-08-29T00:08:39.503Z,1.90
2022-08-29T00:11:07.993Z,2.20
2022-08-29T00:13:35.392Z,1.47
2022-08-29T00:16:02.940Z,2.10
2022-08-29T00:18:30.954Z,1.77
2022-08-29T00:20:58.343Z,1.73
2022-08-29T00:23:27.075Z,1.70
2022-08-29T00:25:54.788Z,1.70
2022-08-29T00:28:22.174Z,1.77
2022-08-29T00:30:49.650Z,2.27
2022-08-29T00:33:17.465Z,2.10
2022-08-29T00:35:45.541Z,2.10
2022-08-29T00:38:14.419Z,1.93
2022-08-29T00:40:47.870Z,2.13
2022-08-29T00:43:19.713Z,2.43
2022-08-29T00:45:50.534Z,2.27
2022-08-29T00:48:18.873Z,2.20
2022-08-29T00:50:49.128Z,2.13
2022-08-29T00:53:17.942Z,2.30
2022-08-29T00:55:50.223Z,2.10
2022-08-29T00:58:21.268Z,2.03
2022-08-29T01:00:49.450Z,2.10
2022-08-29T01:03:17.000Z,1.97
2022-08-29T01:05:44.425Z,1.93
2022-08-29T01:08:11.808Z,2.03
2022-08-29T01:10:57.166Z,1.80
2022-08-29T01:13:28.685Z,1.77
2022-08-29T01:15:56.898Z,1.90
2022-08-29T01:18:25.017Z,1.80
2022-08-29T01:20:59.922Z,2.23
2022-08-29T01:23:28.845Z,2.00
2022-08-29T01:25:58.096Z,1.60
2022-08-29T01:28:26.631Z,2.23
2022-08-29T01:31:01.581Z,2.03
2022-08-29T01:33:35.890Z,1.73
2022-08-29T01:36:03.463Z,1.43
2022-08-29T01:38:30.873Z,1.70
2022-08-29T01:41:00.212Z,1.83
2022-08-29T01:43:28.806Z,2.23
2022-08-29T01:45:56.244Z,2.20
2022-08-29T01:48:23.649Z,1.93
2022-08-29T01:50:51.174Z,1.60
2022-08-29T01:53:20.166Z,1.50
2022-08-29T01:55:47.566Z,2.00
2022-08-29T01:58:16.725Z,1.90
2022-08-29T02:00:44.257Z,2.00
2022-08-29T02:03:11.751Z,1.80
2022-08-29T02:05:39.418Z,1.93
2022-08-29T02:08:07.081Z,1.93
2022-08-29T02:10:34.546Z,2.07
2022-08-29T02:13:02.252Z,1.97
2022-08-29T02:15:31.002Z,2.10
2022-08-29T02:17:58.391Z,2.17
2022-08-29T02:20:25.772Z,2.00
2022-08-29T02:22:53.157Z,1.90
2022-08-29T02:25:38.382Z,1.90
2022-08-29T02:28:05.758Z,1.73
2022-08-29T02:30:34.972Z,1.90
2022-08-29T02:33:03.555Z,1.80
2022-08-29T02:35:35.100Z,1.87
2022-08-29T02:38:04.089Z,1.97
2022-08-29T02:40:32.053Z,1.70
2022-08-29T02:43:00.000Z,1.67
2022-08-29T02:45:27.610Z,1.67
2022-08-29T02:47:56.413Z,1.93
2022-08-29T02:50:25.480Z,2.27
2022-08-29T02:52:53.491Z,2.00
2022-08-29T02:55:21.562Z,2.47
2022-08-29T02:57:48.979Z,1.50
2022-08-29T03:00:19.221Z,1.83
2022-08-29T03:02:47.369Z,2.00
2022-08-29T03:05:16.784Z,1.60
2022-08-29T03:07:47.945Z,2.17
2022-08-29T03:10:19.525Z,1.90
2022-08-29T03:12:47.642Z,1.83
2022-08-29T03:15:15.241Z,2.30
2022-08-29T03:17:42.850Z,1.90
2022-08-29T03:20:10.920Z,1.80
2022-08-29T03:22:39.759Z,1.87
2022-08-29T03:25:07.857Z,1.70
2022-08-29T03:27:35.462Z,1.70
2022-08-29T03:30:02.907Z,2.03
2022-08-29T03:32:30.606Z,2.00
2022-08-29T03:34:58.013Z,1.67
2022-08-29T03:37:26.233Z,1.90
2022-08-29T03:39:55.349Z,1.70
2022-08-29T03:42:22.782Z,2.00
2022-08-29T03:44:50.200Z,2.00
2022-08-29T03:47:17.585Z,1.70
2022-08-29T03:49:45.592Z,1.73
2022-08-29T03:52:13.037Z,1.70
2022-08-29T03:54:40.400Z,1.80
2022-08-29T03:57:09.389Z,1.80
2022-08-29T03:59:36.959Z,2.10
2022-08-29T04:02:04.655Z,2.07
2022-08-29T04:04:49.468Z,1.90
2022-08-29T04:07:17.677Z,1.80
2022-08-29T04:09:45.125Z,2.20
2022-08-29T04:12:14.387Z,2.33
2022-08-29T04:14:42.668Z,1.97
2022-08-29T04:17:12.250Z,1.93
2022-08-29T04:19:39.861Z,2.20
2022-08-29T04:22:08.022Z,2.20
2022-08-29T04:24:35.743Z,2.20
2022-08-29T04:27:03.332Z,2.00
2022-08-29T04:29:34.247Z,2.50
2022-08-29T04:32:01.643Z,2.07
2022-08-29T04:34:29.121Z,1.97
2022-08-29T04:36:56.734Z,2.43
2022-08-29T04:39:24.134Z,2.20
2022-08-29T04:41:51.608Z,2.13
2022-08-29T04:44:19.131Z,2.20
2022-08-29T04:46:47.971Z,2.30
2022-08-29T04:49:15.481Z,1.97
2022-08-29T04:51:42.899Z,2.00
2022-08-29T04:54:10.370Z,2.03
2022-08-29T04:56:38.382Z,1.83
2022-08-29T04:59:10.553Z,2.00
2022-08-29T05:01:38.355Z,2.20
2022-08-29T05:04:10.215Z,1.97
2022-08-29T05:06:40.209Z,2.47
2022-08-29T05:09:07.573Z,2.00
2022-08-29T05:11:35.031Z,1.97
2022-08-29T05:14:02.574Z,2.10
2022-08-29T05:16:31.666Z,2.20
2022-08-29T05:18:59.623Z,2.30
2022-08-29T05:21:35.092Z,2.70
2022-08-29T05:24:03.616Z,2.00
2022-08-29T05:26:32.263Z,2.13
2022-08-29T05:28:59.848Z,2.40
2022-08-29T05:31:27.410Z,2.20
2022-08-29T05:33:54.939Z,2.27
2022-08-29T05:36:22.704Z,2.30
2022-08-29T05:38:51.436Z,2.67
2022-08-29T05:41:19.173Z,2.10
2022-08-29T05:43:47.309Z,2.17
2022-08-29T05:46:14.779Z,2.60
2022-08-29T05:48:48.374Z,2.90
2022-08-29T05:51:16.228Z,2.63
2022-08-29T05:53:43.623Z,2.80
2022-08-29T05:56:12.848Z,2.70
2022-08-29T05:58:40.275Z,2.63
2022-08-29T06:01:07.657Z,2.30
2022-08-29T06:03:35.230Z,2.57
2022-08-29T06:06:02.746Z,3.23
2022-08-29T06:08:30.116Z,2.90
2022-08-29T06:10:57.587Z,3.00
2022-08-29T06:13:26.684Z,2.73
2022-08-29T06:15:54.130Z,2.53
2022-08-29T06:18:22.301Z,2.90
2022-08-29T06:20:57.538Z,2.70
2022-08-29T06:23:27.360Z,2.83
2022-08-29T06:25:56.336Z,2.43
2022-08-29T06:28:24.136Z,2.87
2022-08-29T06:30:53.017Z,3.00
2022-08-29T06:33:20.419Z,2.83
2022-08-29T06:35:47.846Z,2.97
2022-08-29T06:38:15.693Z,3.17
2022-08-29T06:40:43.765Z,2.97
2022-08-29T06:43:11.191Z,2.70
2022-08-29T06:45:41.067Z,3.30
2022-08-29T06:48:10.329Z,3.00
2022-08-29T06:50:45.407Z,3.27
2022-08-29T06:53:26.921Z,2.57
2022-08-29T06:55:55.657Z,2.93
2022-08-29T06:58:23.290Z,2.70
2022-08-29T07:00:50.665Z,2.40
2022-08-29T07:03:19.362Z,2.60
2022-08-29T07:05:51.671Z,2.37
2022-08-29T07:08:19.058Z,2.60
2022-08-29T07:10:46.798Z,2.77
2022-08-29T07:13:14.411Z,3.03
2022-08-29T07:15:41.987Z,2.57
2022-08-29T07:18:09.561Z,3.00
2022-08-29T07:20:40.243Z,2.30
2022-08-29T07:23:08.754Z,2.60
2022-08-29T07:25:36.748Z,2.93
2022-08-29T07:28:04.401Z,2.80
2022-08-29T07:30:32.565Z,2.80
2022-08-29T07:33:00.403Z,2.77
2022-08-29T07:35:31.052Z,2.83
2022-08-29T07:38:01.085Z,2.60
2022-08-29T07:40:29.935Z,2.57
2022-08-29T07:42:57.463Z,3.07
2022-08-29T07:45:24.854Z,2.93
2022-08-29T07:47:52.965Z,2.67
2022-08-29T07:50:20.419Z,2.57
2022-08-29T07:52:48.462Z,2.53
2022-08-29T07:55:17.853Z,2.43
2022-08-29T07:57:46.502Z,2.27
2022-08-29T08:00:14.211Z,3.10
2022-08-29T08:02:41.731Z,2.43
2022-08-29T08:05:09.542Z,2.23
2022-08-29T08:07:40.218Z,2.73
2022-08-29T08:10:08.657Z,2.40
2022-08-29T08:12:37.370Z,2.40
2022-08-29T08:15:05.206Z,2.83
2022-08-29T08:17:32.594Z,2.67
2022-08-29T08:20:00.391Z,2.60
2022-08-29T08:22:27.829Z,2.60
2022-08-29T08:24:55.298Z,2.63
2022-08-29T08:27:22.709Z,2.50
2022-08-29T08:29:51.413Z,2.27
2022-08-29T08:32:20.406Z,2.30
2022-08-29T08:34:47.788Z,2.77
2022-08-29T08:37:19.409Z,2.17
2022-08-29T08:39:56.344Z,2.80
2022-08-29T08:42:29.155Z,2.83
2022-08-29T08:45:05.443Z,2.60
2022-08-29T08:47:34.775Z,2.40
2022-08-29T08:50:04.531Z,2.60
2022-08-29T08:52:35.113Z,2.50
2022-08-29T08:55:05.837Z,2.60
2022-08-29T08:57:37.407Z,2.40
2022-08-29T09:00:07.806Z,2.47
2022-08-29T09:02:37.179Z,2.70
2022-08-29T09:05:14.326Z,2.50
2022-08-29T09:07:47.349Z,4.17
2022-08-29T09:10:19.547Z,2.60
2022-08-29T09:12:51.576Z,2.00
2022-08-29T09:15:22.254Z,2.77
2022-08-29T09:17:50.967Z,2.50
2022-08-29T09:20:19.212Z,2.37
2022-08-29T09:22:52.881Z,2.63
2022-08-29T09:25:22.975Z,2.50
2022-08-29T09:27:52.361Z,2.50
2022-08-29T09:30:25.458Z,2.90
2022-08-29T09:32:54.225Z,2.47
2022-08-29T09:35:24.671Z,3.07
2022-08-29T09:38:02.370Z,2.30
2022-08-29T09:40:42.588Z,2.87
2022-08-29T09:43:17.013Z,2.60
2022-08-29T09:46:02.548Z,2.67
2022-08-29T09:48:35.361Z,2.50
2022-08-29T09:51:10.356Z,2.60
2022-08-29T09:53:37.766Z,2.60
2022-08-29T09:56:06.274Z,2.23
2022-08-29T09:58:39.797Z,2.77
2022-08-29T10:01:11.573Z,2.07
2022-08-29T10:03:41.857Z,2.37
2022-08-29T10:06:13.611Z,2.53
2022-08-29T10:08:41.971Z,2.70
2022-08-29T10:11:26.026Z,2.50
2022-08-29T10:13:54.819Z,3.03
2022-08-29T10:16:30.608Z,2.13
2022-08-29T10:19:00.050Z,2.53
2022-08-29T10:21:31.649Z,2.20
2022-08-29T10:24:06.064Z,2.37
2022-08-29T10:26:38.068Z,2.60
2022-08-29T10:29:10.075Z,2.30
2022-08-29T10:31:42.153Z,2.00
2022-08-29T10:34:17.067Z,2.23
2022-08-29T10:36:46.315Z,2.23
2022-08-29T10:39:15.093Z,2.47
2022-08-29T10:41:50.471Z,2.20
2022-08-29T10:44:23.567Z,3.20
2022-08-29T10:46:57.383Z,1.80
2022-08-29T10:49:36.301Z,2.20
2022-08-29T10:52:07.485Z,2.23
2022-08-29T10:54:41.409Z,2.33
2022-08-29T10:57:09.475Z,2.30
2022-08-29T10:59:51.534Z,2.10
2022-08-29T11:02:23.791Z,2.20
2022-08-29T11:04:52.563Z,2.17
2022-08-29T11:07:22.552Z,2.07
2022-08-29T11:09:52.566Z,1.97
2022-08-29T11:12:22.374Z,2.43
2022-08-29T11:14:52.778Z,2.80
2022-08-29T11:17:23.003Z,2.33
2022-08-29T11:19:57.806Z,2.57
2022-08-29T11:22:27.308Z,2.30
2022-08-29T11:24:58.334Z,2.53
2022-08-29T11:27:31.491Z,2.30
2022-08-29T11:30:02.454Z,2.50
2022-08-29T11:32:36.031Z,2.53
2022-08-29T11:35:10.080Z,2.13
2022-08-29T11:37:57.490Z,2.27
2022-08-29T11:43:20.627Z,2.13
2022-08-29T11:45:56.242Z,2.17
2022-08-29T11:48:32.259Z,2.53
2022-08-29T11:50:59.736Z,2.10
2022-08-29T11:53:33.752Z,2.03
2022-08-29T11:56:21.394Z,2.17
2022-08-29T11:58:50.060Z,2.07
2022-08-29T12:01:32.420Z,1.80
2022-08-29T12:04:01.971Z,1.97
2022-08-29T12:06:37.055Z,1.90
2022-08-29T12:09:13.440Z,2.40
2022-08-29T12:12:00.182Z,2.00
2022-08-29T12:14:36.943Z,2.30
2022-08-29T12:17:06.659Z,2.23
2022-08-29T12:19:53.142Z,2.10
2022-08-29T12:22:45.357Z,2.23
2022-08-29T12:25:31.381Z,2.00
2022-08-29T12:28:01.071Z,1.77
2022-08-29T12:30:29.378Z,2.03
2022-08-29T12:33:03.923Z,2.20
2022-08-29T12:36:02.084Z,2.20
2022-08-29T12:38:38.798Z,2.70
2022-08-29T12:41:18.332Z,2.57
2022-08-29T12:43:46.707Z,2.00
2022-08-29T12:46:20.777Z,2.20
2022-08-29T12:48:57.813Z,1.90
2022-08-29T12:51:34.453Z,2.03
2022-08-29T12:54:01.914Z,1.60
2022-08-29T12:56:30.094Z,1.90
2022-08-29T12:58:58.630Z,2.00
2022-08-29T13:01:30.881Z,2.30
2022-08-29T13:04:00.110Z,2.20
2022-08-29T13:06:27.894Z,1.77
2022-08-29T13:08:56.618Z,2.20
2022-08-29T13:11:25.809Z,1.80
2022-08-29T13:14:04.568Z,1.87
2022-08-29T13:16:32.529Z,1.70
2022-08-29T13:19:10.824Z,1.83
2022-08-29T13:21:38.988Z,1.97
2022-08-29T13:24:12.487Z,1.77
2022-08-29T13:26:43.014Z,1.50
2022-08-29T13:29:24.435Z,1.93
2022-08-29T13:32:08.629Z,1.87
2022-08-29T13:34:36.023Z,2.00
2022-08-29T13:37:07.686Z,1.70
2022-08-29T13:39:41.805Z,1.90
2022-08-29T13:42:17.066Z,1.80
2022-08-29T13:44:53.955Z,1.83
2022-08-29T13:47:23.085Z,1.70
2022-08-29T13:49:50.913Z,2.00
2022-08-29T13:52:19.102Z,2.10
2022-08-29T13:54:47.838Z,2.03
2022-08-29T13:57:16.924Z,1.93
2022-08-29T13:59:44.563Z,1.63
2022-08-29T14:02:12.709Z,1.80
2022-08-29T14:04:41.559Z,1.70
2022-08-29T14:07:09.950Z,2.13
2022-08-29T14:09:38.354Z,1.70
2022-08-29T14:12:07.851Z,1.70
2022-08-29T14:14:35.459Z,1.70
2022-08-29T14:17:03.053Z,1.80
2022-08-29T14:19:30.820Z,1.40
2022-08-29T14:21:59.118Z,1.77
2022-08-29T14:24:28.923Z,1.77
2022-08-29T14:27:01.551Z,1.90
2022-08-29T14:29:31.093Z,2.00
2022-08-29T14:31:58.566Z,1.80
2022-08-29T14:34:28.630Z,1.40
2022-08-29T14:36:58.499Z,1.60
2022-08-29T14:39:26.398Z,1.83
2022-08-29T14:41:54.403Z,1.73
2022-08-29T14:44:22.311Z,1.80
2022-08-29T14:46:51.630Z,1.80
2022-08-29T14:49:19.516Z,1.70
2022-08-29T14:51:47.267Z,1.70
2022-08-29T14:54:16.689Z,1.90
2022-08-29T14:56:49.157Z,2.17
2022-08-29T14:59:17.224Z,1.77
2022-08-29T15:01:45.999Z,1.70
2022-08-29T15:04:17.610Z,1.70
2022-08-29T15:06:49.350Z,1.70
2022-08-29T15:09:16.930Z,1.50
2022-08-29T15:11:44.393Z,1.70
2022-08-29T15:14:11.819Z,1.77
2022-08-29T15:16:39.801Z,1.77
2022-08-29T15:21:55.945Z,1.70
2022-08-29T15:24:24.087Z,2.37
2022-08-29T15:26:54.829Z,1.63
2022-08-29T15:29:22.222Z,1.90
2022-08-29T15:31:51.604Z,1.60
2022-08-29T15:34:19.320Z,1.60
2022-08-29T15:36:46.711Z,1.70
2022-08-29T15:39:15.421Z,2.00
2022-08-29T15:41:42.805Z,2.00
2022-08-29T15:44:10.193Z,1.67
2022-08-29T15:46:38.218Z,1.90
2022-08-29T15:49:06.945Z,1.83
2022-08-29T15:51:34.718Z,1.47
2022-08-29T15:54:02.414Z,1.60
2022-08-29T15:56:35.414Z,1.97
2022-08-29T15:59:05.578Z,1.63
2022-08-29T16:01:36.283Z,1.47
2022-08-29T16:04:04.282Z,1.80
2022-08-29T16:06:31.749Z,2.20
2022-08-29T16:08:59.226Z,1.80
2022-08-29T16:11:26.829Z,1.73
2022-08-29T16:14:08.397Z,1.83
2022-08-29T16:16:43.538Z,1.90
2022-08-29T16:19:11.043Z,1.50
2022-08-29T16:21:38.450Z,2.00
2022-08-29T16:24:06.867Z,1.63
2022-08-29T16:26:35.930Z,1.73
2022-08-29T16:29:04.923Z,1.90
2022-08-29T16:31:32.600Z,1.60
2022-08-29T16:34:01.071Z,1.73
2022-08-29T16:36:28.445Z,2.07
2022-08-29T16:38:55.905Z,1.70
2022-08-29T16:41:25.069Z,1.97
2022-08-29T16:43:53.323Z,2.00
2022-08-29T16:46:23.797Z,1.80
2022-08-29T16:48:51.348Z,1.97
2022-08-29T16:51:19.923Z,2.00
2022-08-29T16:53:47.789Z,1.60
2022-08-29T16:56:16.146Z,1.60
2022-08-29T16:59:03.952Z,1.87
2022-08-29T17:01:34.500Z,1.60
2022-08-29T17:04:02.488Z,2.03
2022-08-29T17:06:29.923Z,1.67
2022-08-29T17:08:56.418Z,1.77
2022-08-29T17:11:22.886Z,1.57
2022-08-29T17:13:49.931Z,1.90
2022-08-29T17:16:16.362Z,1.70
2022-08-29T17:18:46.445Z,1.60
2022-08-29T17:21:14.114Z,2.17
2022-08-29T17:23:42.341Z,1.53
2022-08-29T17:26:11.738Z,2.20
2022-08-29T17:28:40.409Z,1.97
2022-08-29T17:31:08.950Z,1.80
2022-08-29T17:33:36.391Z,2.00
2022-08-29T17:36:05.735Z,1.80
2022-08-29T17:38:33.487Z,1.87
2022-08-29T17:41:05.105Z,1.97
2022-08-29T17:43:42.639Z,2.20
2022-08-29T17:46:10.370Z,1.80
2022-08-29T17:48:37.798Z,2.00
2022-08-29T17:51:06.752Z,1.80
2022-08-29T17:53:34.797Z,1.87
2022-08-29T17:56:11.450Z,1.80
2022-08-29T17:58:40.097Z,1.70
2022-08-29T18:01:11.345Z,1.87
2022-08-29T18:03:41.104Z,1.63
2022-08-29T18:06:10.203Z,1.73
2022-08-29T18:08:38.863Z,1.90
2022-08-29T18:11:06.498Z,1.90
2022-08-29T18:13:34.090Z,1.80
2022-08-29T18:16:01.472Z,1.83
2022-08-29T18:18:30.087Z,1.90
2022-08-29T18:20:57.563Z,2.30
2022-08-29T18:23:26.299Z,2.07
2022-08-29T18:25:53.680Z,2.10
2022-08-29T18:28:21.781Z,2.10
2022-08-29T18:30:49.388Z,2.20
2022-08-29T18:33:17.000Z,2.07
2022-08-29T18:35:44.494Z,1.80
2022-08-29T18:38:11.912Z,2.00
2022-08-29T18:40:41.212Z,2.00
2022-08-29T18:43:09.969Z,2.13
2022-08-29T18:45:39.442Z,2.40
2022-08-29T18:48:07.030Z,2.03
2022-08-29T18:50:37.571Z,2.13
2022-08-29T18:53:06.529Z,2.43
2022-08-29T18:55:34.479Z,1.90
2022-08-29T18:58:03.224Z,2.50
2022-08-29T19:00:31.099Z,2.17
2022-08-29T19:02:59.518Z,2.30
2022-08-29T19:05:27.855Z,2.63
2022-08-29T19:07:55.939Z,2.50
2022-08-29T19:10:23.762Z,2.20
2022-08-29T19:12:51.163Z,2.57
2022-08-29T19:15:20.903Z,2.37
2022-08-29T19:17:48.494Z,2.03
2022-08-29T19:20:35.161Z,2.30
2022-08-29T19:23:02.861Z,2.10
2022-08-29T19:25:30.611Z,2.50
2022-08-29T19:27:58.570Z,2.13
2022-08-29T19:30:27.846Z,2.47
2022-08-29T19:32:55.517Z,2.43
2022-08-29T19:35:23.893Z,2.00
2022-08-29T19:37:51.705Z,2.50
2022-08-29T19:40:20.378Z,2.50
2022-08-29T19:42:48.235Z,2.20
2022-08-29T19:45:16.531Z,1.90
2022-08-29T19:47:46.159Z,2.10
2022-08-29T19:50:16.851Z,2.20
2022-08-29T19:52:44.310Z,2.33
2022-08-29T19:55:12.902Z,2.67
2022-08-29T19:57:40.985Z,2.70
2022-08-29T20:00:13.809Z,2.27
2022-08-29T20:02:42.259Z,2.27
2022-08-29T20:05:12.434Z,2.50
2022-08-29T20:07:40.542Z,2.70
2022-08-29T20:10:08.676Z,2.27
2022-08-29T20:12:36.966Z,2.80
2022-08-29T20:15:05.175Z,2.30
2022-08-29T20:17:32.566Z,2.33
2022-08-29T20:20:08.423Z,2.40
2022-08-29T20:22:37.231Z,2.60
2022-08-29T20:25:05.234Z,2.57
2022-08-29T20:27:34.503Z,2.87
2022-08-29T20:30:03.362Z,3.00
2022-08-29T20:32:31.372Z,3.07
2022-08-29T20:34:58.883Z,2.60
2022-08-29T20:37:25.922Z,3.20
2022-08-29T20:39:54.980Z,2.80
2022-08-29T20:42:23.989Z,3.03
2022-08-29T20:44:51.997Z,2.80
2022-08-29T20:47:20.554Z,2.70
2022-08-29T20:49:49.319Z,2.90
2022-08-29T20:52:20.549Z,2.73
2022-08-29T20:54:48.470Z,2.97
2022-08-29T20:57:17.487Z,2.67
2022-08-29T20:59:44.889Z,2.80
2022-08-29T21:02:12.372Z,2.40
2022-08-29T21:04:57.679Z,2.70
2022-08-29T21:07:25.845Z,2.77
2022-08-29T21:09:54.673Z,2.47
2022-08-29T21:12:27.529Z,2.20
2022-08-29T21:14:55.062Z,2.37
2022-08-29T21:17:22.586Z,2.40
2022-08-29T21:19:49.970Z,2.57
2022-08-29T21:22:19.759Z,2.50
2022-08-29T21:24:50.496Z,2.70
2022-08-29T21:27:18.055Z,2.43
2022-08-29T21:29:46.948Z,2.23
2022-08-29T21:32:14.326Z,2.20
2022-08-29T21:34:41.711Z,2.10
2022-08-29T21:37:09.165Z,2.30
2022-08-29T21:39:36.561Z,2.20
2022-08-29T21:42:04.103Z,1.90
2022-08-29T21:44:31.717Z,2.23
2022-08-29T21:47:00.589Z,2.40
2022-08-29T21:49:30.290Z,2.60
2022-08-29T21:51:57.897Z,2.00
2022-08-29T21:54:25.500Z,2.47
2022-08-29T21:56:52.989Z,2.17
2022-08-29T21:59:21.597Z,2.07
2022-08-29T22:01:54.488Z,2.40
2022-08-29T22:04:29.015Z,2.17
2022-08-29T22:06:57.050Z,2.20
2022-08-29T22:09:25.553Z,2.30
2022-08-29T22:11:52.921Z,2.23
2022-08-29T22:14:20.410Z,2.53
2022-08-29T22:16:46.930Z,2.33
2022-08-29T22:19:15.491Z,1.93
2022-08-29T22:21:44.938Z,2.70
2022-08-29T22:24:12.795Z,2.70
2022-08-29T22:26:40.750Z,2.53
2022-08-29T22:29:11.588Z,2.30
2022-08-29T22:31:42.418Z,2.10
2022-08-29T22:34:10.124Z,2.30
2022-08-29T22:36:37.511Z,2.17
2022-08-29T22:39:06.915Z,2.60
2022-08-29T22:41:34.690Z,2.23
2022-08-29T22:44:37.959Z,2.07
2022-08-29T22:46:50.017Z,2.30
2022-08-29T22:49:19.015Z,2.27
2022-08-29T22:51:46.567Z,2.17
2022-08-29T22:54:33.136Z,2.07
2022-08-29T22:57:01.320Z,2.33
2022-08-29T22:59:28.803Z,2.30
2022-08-29T23:01:56.800Z,2.50
2022-08-29T23:04:24.339Z,2.40
2022-08-29T23:06:52.062Z,2.30
2022-08-29T23:09:21.006Z,2.47
2022-08-29T23:11:48.444Z,2.70
2022-08-29T23:14:15.847Z,2.50
2022-08-29T23:16:48.231Z,2.37
2022-08-29T23:19:15.754Z,2.23
2022-08-29T23:21:43.793Z,2.37
2022-08-29T23:24:11.204Z,2.47
2022-08-29T23:26:40.172Z,2.40
2022-08-29T23:29:07.571Z,2.60
2022-08-29T23:31:35.138Z,2.30
2022-08-29T23:34:02.577Z,2.57
2022-08-29T23:36:29.982Z,2.50
2022-08-29T23:38:57.401Z,2.57
2022-08-29T23:41:25.380Z,2.33
2022-08-29T23:43:54.094Z,2.37
2022-08-29T23:46:23.090Z,2.90
2022-08-29T23:48:50.560Z,2.67
2022-08-29T23:51:18.641Z,2.73
2022-08-29T23:53:46.030Z,2.30
2022-08-29T23:56:14.227Z,2.30
2022-08-29T23:58:41.624Z,2.47
